Anticosti - western half: Past 24 Hour Conditions

 

St. John's Int'l Airport

06:30 AM NST 21 November 2014
This table is a summary of hourly weather conditions for the past 24 hours.
Date / Time
(NST)
Wind(knots) Conditions Visibility(km) Pressure(kPa) Air tempC) Relative humidity(%) Dew pointC) Wind Chill
21 November 2014
6:30 SSE 27 gust 35 Light Rain 24 101.0 6 90 4 *
5:30 SSE 20 gust 31 Mostly Cloudy 24 101.2 5 89 3 *
4:30 SSE 21 gust 32 Partly Cloudy 24 101.3 4 87 2 *
3:30 SSE 23 gust 33 Partly Cloudy 24 101.4 3 81 0 *
2:30 SSE 20 gust 27 Clear 24 101.6 2 80 -1 *
1:30 SSE 15 Mainly Clear 24 101.7 1 81 -2 *
0:30 SSE 10 Clear 24 101.8 0 80 -3 *
20 November 2014
23:30 S 13 Clear 24 101.9 0 78 -4 -6
22:30 S 13 Clear 24 102.0 -1 74 -5 -7
21:30 SSW 11 Clear 24 102.1 -1 72 -5 -6
20:30 SSW 7 Clear 24 102.1 -2 79 -5 -6
19:30 SW 7 Clear 24 102.1 -1 74 -5 -5
18:30 SW 10 Clear 24 102.1 -1 72 -5 -6
17:30 SW 9 Mainly Clear 24 102.0 -1 69 -6 -6
16:30 WSW 12 gust 18 Partly Cloudy 24 102.0 1 64 -5 *
15:30 WSW 11 Partly Cloudy 24 102.0 1 72 -4 *
14:30 WSW 11 gust 18 Partly Cloudy 24 101.9 1 69 -4 *
13:30 WSW 16 gust 22 Partly Cloudy 24 101.8 1 65 -5 *
12:30 WSW 15 gust 21 Partly Cloudy 24 101.8 1 63 -5 *
11:30 W 12 Partly Cloudy 24 101.8 0 63 -6 -6
10:30 W 17 gust 23 Partly Cloudy 24 101.9 0 58 -7 -7
9:30 W 13 gust 24 Partly Cloudy 24 101.9 0 63 -7 -6
8:30 W 23 gust 30 Mainly Sunny 24 101.8 -1 63 -7 -9
7:30 W 18 gust 27 Partly Cloudy 24 101.7 -2 82 -4 -9
6:30 W 18 gust 26 Light Snowshower 16 101.6 -1 84 -4 -8
 
Map of Atlantic - Newfoundland marine weather areas Southwestern Grand Banks - 44138 Banquereau - 44139 Tail of the Bank - 44140 Nickerson Bank - 44251 Northeast Burgeo Bank - 44255 Blanc-Sablon Airport Cap Whittle Chevery Natashquan Airport Heath Point Miscou Island Grand Étang Ingonish Beach North Mountain St.Paul Island J.A. Douglas McCurdy Sydney Airport Charlottetown Airport East Point North Cape Argentia Bonavista Burgeo Cape Race Corner Brook Daniel's Harbour Englee Ferolle Point La Scie Port aux Basques Rocky Harbour Sagona Island St. Anthony Airport St. John's Int'l Airport St. Lawrence Stephenville Airport Twillingate Winterland Wreckhouse Cartwright Airport Mary's Harbour Grates Cove Pool's Island Marticot Island Long Pond Îles de la Madeleine Airport
Legend: buoyBuoy land stationLand Station